Time;durP1;ratioP1;P1;durP2;ratioP2;P2;SDS_P1;SDS_P2;PMS_P1;PMS_P2;Temp;Humidity;BMP_temperature;BMP_pressure;BME280_temperature;BME280_humidity;BME280_pressure;Samples;Min_cycle;Max_cycle;Signal;HPM_P1;HPM_P2
2021/11/19 00:01:36;;;;;;;;;;;19.80;99.90;;;;;;5074906;28;19916;-74
2021/11/19 00:04:03;;;;;;;;;;;19.80;99.90;;;;;;5074611;28;20388;-74
2021/11/19 00:06:30;;;;;;;;;;;19.80;99.90;;;;;;5074980;28;19962;-74
2021/11/19 00:08:57;;;;;;;;;;;19.80;99.90;;;;;;5074880;28;19908;-73
2021/11/19 00:11:27;;;;;;;;;;;19.80;99.90;;;;;;5074647;28;20282;-73
2021/11/19 00:13:54;;;;;;;;;;;20.00;99.90;;;;;;5074477;28;20351;-74
2021/11/19 00:16:23;;;;;;;;;;;20.00;99.90;;;;;;5074794;28;19912;-73
2021/11/19 00:18:51;;;;;;;;;;;20.10;99.90;;;;;;5074682;28;20011;-72
2021/11/19 00:21:18;;;;;;;;;;;20.30;99.90;;;;;;5074437;28;19977;-73
2021/11/19 00:23:45;;;;;;;;;;;20.30;99.90;;;;;;5074619;28;19916;-73
2021/11/19 00:26:13;;;;;;;;;;;20.40;99.90;;;;;;5074248;28;20363;-73
2021/11/19 00:28:40;;;;;;;;;;;20.40;99.90;;;;;;5074435;28;20402;-73
2021/11/19 00:31:07;;;;;;;;;;;20.60;99.90;;;;;;5074375;28;20263;-71
2021/11/19 00:33:35;;;;;;;;;;;20.60;99.90;;;;;;5074352;28;19935;-73
2021/11/19 00:36:02;;;;;;;;;;;20.60;99.90;;;;;;5074189;28;19908;-74
2021/11/19 00:38:29;;;;;;;;;;;20.80;99.90;;;;;;5074171;28;19912;-71
2021/11/19 00:40:59;;;;;;;;;;;20.90;99.90;;;;;;5074110;28;20034;-74
2021/11/19 00:43:26;;;;;;;;;;;21.10;99.90;;;;;;5074028;28;20266;-70
2021/11/19 00:45:53;;;;;;;;;;;21.40;99.90;;;;;;5073906;28;19954;-73
2021/11/19 00:48:22;;;;;;;;;;;21.50;99.90;;;;;;5073870;28;19909;-74
2021/11/19 00:50:51;;;;;;;;;;;21.80;99.90;;;;;;5073921;28;19916;-73
2021/11/19 00:53:18;;;;;;;;;;;22.00;99.90;;;;;;5073982;28;19908;-70
2021/11/19 00:55:45;;;;;;;;;;;22.30;99.90;;;;;;5073704;28;19908;-72
2021/11/19 00:58:12;;;;;;;;;;;22.40;99.90;;;;;;5073428;28;19919;-73
2021/11/19 01:00:45;;;;;;;;;;;22.70;99.90;;;;;;5073522;28;20294;-71
2021/11/19 01:03:12;;;;;;;;;;;23.20;99.90;;;;;;5073803;28;20346;-71
2021/11/19 01:05:39;;;;;;;;;;;23.80;99.90;;;;;;5073730;28;19908;-72
2021/11/19 01:08:05;;;;;;;;;;;24.20;99.90;;;;;;5073173;28;19908;-71
2021/11/19 01:10:34;;;;;;;;;;;24.30;99.90;;;;;;5073317;28;19928;-70
2021/11/19 01:13:04;;;;;;;;;;;24.50;99.90;;;;;;5072616;28;20251;-72
2021/11/19 01:15:32;;;;;;;;;;;24.70;99.90;;;;;;5073510;28;19943;-71
2021/11/19 01:18:01;;;;;;;;;;;25.00;99.90;;;;;;5073092;28;19916;-70
2021/11/19 01:20:27;;;;;;;;;;;25.20;99.90;;;;;;5073546;28;19963;-71
2021/11/19 01:22:55;;;;;;;;;;;25.40;99.90;;;;;;5073513;28;19909;-71
2021/11/19 01:25:24;;;;;;;;;;;25.60;99.90;;;;;;5073412;28;20381;-71
2021/11/19 01:27:51;;;;;;;;;;;25.70;99.90;;;;;;5072777;28;20047;-70
2021/11/19 01:30:19;;;;;;;;;;;25.80;99.90;;;;;;5073171;28;19912;-70
2021/11/19 01:32:46;;;;;;;;;;;26.10;99.90;;;;;;5073005;28;20347;-70
2021/11/19 01:35:13;;;;;;;;;;;25.90;99.90;;;;;;5073262;28;20376;-70
2021/11/19 01:37:40;;;;;;;;;;;25.70;99.90;;;;;;5072713;28;20278;-67
2021/11/19 01:40:09;;;;;;;;;;;25.50;99.90;;;;;;5072656;28;20046;-70
2021/11/19 01:42:40;;;;;;;;;;;25.30;99.90;;;;;;5072755;28;19908;-69
2021/11/19 01:45:15;;;;;;;;;;;25.20;99.90;;;;;;5072919;28;20347;-71
2021/11/19 01:47:44;;;;;;;;;;;25.20;99.90;;;;;;5072980;28;20283;-72
2021/11/19 01:50:23;;;;;;;;;;;25.20;99.90;;;;;;5072506;28;19912;-70
2021/11/19 01:52:52;;;;;;;;;;;25.30;99.90;;;;;;5072812;28;19919;-70
2021/11/19 01:55:22;;;;;;;;;;;25.30;99.90;;;;;;5072871;28;19908;-70
2021/11/19 01:58:00;;;;;;;;;;;25.50;99.90;;;;;;5070982;28;19913;-71
2021/11/19 02:00:30;;;;;;;;;;;25.40;99.90;;;;;;5072391;28;19924;-73
2021/11/19 02:02:58;;;;;;;;;;;25.50;99.90;;;;;;5072694;28;20244;-70
2021/11/19 02:05:27;;;;;;;;;;;25.70;99.50;;;;;;5072561;28;19920;-71
2021/11/19 02:07:55;;;;;;;;;;;25.70;99.50;;;;;;5072423;28;19908;-71
2021/11/19 02:10:48;;;;;;;;;;;25.80;97.90;;;;;;5072508;28;20054;-69
2021/11/19 02:13:38;;;;;;;;;;;25.70;98.30;;;;;;5056646;28;19909;-71
2021/11/19 02:16:07;;;;;;;;;;;25.80;98.00;;;;;;5079434;28;19995;-72
2021/11/19 02:18:37;;;;;;;;;;;26.00;96.50;;;;;;5072496;28;20351;-72
2021/11/19 02:21:10;;;;;;;;;;;26.00;97.20;;;;;;5072050;28;19909;-71
2021/11/19 02:23:47;;;;;;;;;;;26.10;97.50;;;;;;5072423;28;19908;-72
2021/11/19 02:26:16;;;;;;;;;;;26.10;97.20;;;;;;5072522;28;19908;-72
2021/11/19 02:28:45;;;;;;;;;;;26.20;96.30;;;;;;5072385;28;19962;-71
2021/11/19 02:31:14;;;;;;;;;;;26.30;95.00;;;;;;5072501;28;19917;-70
2021/11/19 02:33:43;;;;;;;;;;;26.20;96.30;;;;;;5072497;28;19992;-70
2021/11/19 02:36:13;;;;;;;;;;;26.20;95.70;;;;;;5071966;28;19954;-71
2021/11/19 02:38:47;;;;;;;;;;;26.20;95.40;;;;;;5072376;28;19912;-71
2021/11/19 02:41:15;;;;;;;;;;;26.30;95.10;;;;;;5072180;28;19978;-71
2021/11/19 02:43:42;;;;;;;;;;;26.50;95.50;;;;;;5072258;28;19995;-71
2021/11/19 02:46:14;;;;;;;;;;;26.60;94.60;;;;;;5071980;28;19908;-72
2021/11/19 02:48:41;;;;;;;;;;;26.70;94.60;;;;;;5072269;28;19995;-71
2021/11/19 02:51:09;;;;;;;;;;;26.80;94.20;;;;;;5072098;28;19916;-72
2021/11/19 02:53:36;;;;;;;;;;;26.80;94.70;;;;;;5072080;28;19908;-71
2021/11/19 02:56:02;;;;;;;;;;;26.80;94.40;;;;;;5071961;28;19966;-72
2021/11/19 02:58:31;;;;;;;;;;;26.80;93.70;;;;;;5072383;28;19916;-72
2021/11/19 03:01:01;;;;;;;;;;;26.80;93.60;;;;;;5072092;28;19943;-73
2021/11/19 03:03:28;;;;;;;;;;;26.90;94.20;;;;;;5072390;28;19909;-72
2021/11/19 03:05:55;;;;;;;;;;;27.10;93.10;;;;;;5071660;28;19909;-73
2021/11/19 03:08:22;;;;;;;;;;;27.10;93.20;;;;;;5071990;28;19912;-72
2021/11/19 03:10:54;;;;;;;;;;;27.10;93.60;;;;;;5071513;28;19913;-72
2021/11/19 03:13:22;;;;;;;;;;;27.20;93.00;;;;;;5071653;28;19931;-72
2021/11/19 03:15:50;;;;;;;;;;;27.00;94.40;;;;;;5071592;28;19954;-73
2021/11/19 03:18:18;;;;;;;;;;;27.00;94.30;;;;;;5087144;28;20397;-72
2021/11/19 03:20:47;;;;;;;;;;;27.10;94.50;;;;;;5072031;28;19909;-70
2021/11/19 03:23:14;;;;;;;;;;;27.10;94.90;;;;;;5072058;28;19954;-73
2021/11/19 03:25:41;;;;;;;;;;;27.20;95.00;;;;;;5071912;28;19919;-71
2021/11/19 03:28:10;;;;;;;;;;;27.20;95.10;;;;;;5071506;28;19932;-72
2021/11/19 03:30:37;;;;;;;;;;;27.20;95.90;;;;;;5072514;28;19917;-70
2021/11/19 03:33:06;;;;;;;;;;;27.20;95.50;;;;;;5075475;28;19922;-70
2021/11/19 03:35:33;;;;;;;;;;;27.10;95.70;;;;;;5075722;28;19916;-71
2021/11/19 03:38:01;;;;;;;;;;;27.00;96.10;;;;;;5075196;28;19913;-70
2021/11/19 03:40:30;;;;;;;;;;;26.90;95.90;;;;;;5075323;28;19915;-70
2021/11/19 03:43:00;;;;;;;;;;;26.70;96.10;;;;;;5075451;28;19908;-69
2021/11/19 03:45:29;;;;;;;;;;;26.80;96.40;;;;;;5073782;28;20452;-72
2021/11/19 03:47:56;;;;;;;;;;;26.90;96.10;;;;;;5074789;28;19915;-71
2021/11/19 03:50:32;;;;;;;;;;;27.00;95.90;;;;;;5075069;28;20008;-72
2021/11/19 03:52:59;;;;;;;;;;;27.00;95.70;;;;;;5075128;28;19987;-73
2021/11/19 03:55:34;;;;;;;;;;;27.00;95.40;;;;;;5074891;28;19913;-71
2021/11/19 03:58:01;;;;;;;;;;;26.90;95.40;;;;;;5074928;28;19912;-72
2021/11/19 04:00:37;;;;;;;;;;;26.90;95.30;;;;;;5074735;28;19921;-72
2021/11/19 04:03:05;;;;;;;;;;;26.70;95.50;;;;;;5074719;28;20307;-71
2021/11/19 04:05:32;;;;;;;;;;;26.60;95.30;;;;;;5074390;28;20007;-72
2021/11/19 04:07:58;;;;;;;;;;;26.50;95.80;;;;;;5074465;28;19915;-71
2021/11/19 04:10:25;;;;;;;;;;;26.50;95.60;;;;;;5074203;28;19951;-69
2021/11/19 04:12:52;;;;;;;;;;;26.50;95.70;;;;;;5074769;28;20323;-69
2021/11/19 04:15:23;;;;;;;;;;;26.40;95.80;;;;;;5074623;28;20317;-71
2021/11/19 04:17:50;;;;;;;;;;;26.30;96.10;;;;;;5074378;28;19913;-70
2021/11/19 04:20:17;;;;;;;;;;;26.40;96.60;;;;;;5074508;28;19908;-71
2021/11/19 04:22:44;;;;;;;;;;;26.50;96.70;;;;;;5074561;28;20378;-68
2021/11/19 04:25:12;;;;;;;;;;;26.60;97.10;;;;;;5074223;28;20355;-71
2021/11/19 04:27:39;;;;;;;;;;;26.50;96.70;;;;;;5074443;28;19909;-71
2021/11/19 04:30:07;;;;;;;;;;;26.60;96.50;;;;;;5074115;28;20003;-68
2021/11/19 04:32:34;;;;;;;;;;;26.50;95.80;;;;;;5074360;28;19913;-72
2021/11/19 04:35:01;;;;;;;;;;;26.50;95.90;;;;;;5074220;28;19955;-72
2021/11/19 04:37:28;;;;;;;;;;;26.40;96.00;;;;;;5073948;28;19985;-70
2021/11/19 04:39:54;;;;;;;;;;;26.50;96.20;;;;;;5073431;28;19932;-69
2021/11/19 04:42:22;;;;;;;;;;;26.50;95.90;;;;;;5073563;28;20197;-72
2021/11/19 04:44:49;;;;;;;;;;;26.40;95.70;;;;;;5074234;28;19908;-70
2021/11/19 04:47:15;;;;;;;;;;;26.30;96.20;;;;;;5073943;28;19909;-72
2021/11/19 04:49:42;;;;;;;;;;;26.30;96.30;;;;;;5074152;28;19908;-71
2021/11/19 04:52:11;;;;;;;;;;;26.30;96.00;;;;;;5073720;28;20442;-68
2021/11/19 04:54:38;;;;;;;;;;;26.20;96.20;;;;;;5073949;28;19940;-70
2021/11/19 04:57:05;;;;;;;;;;;26.30;95.70;;;;;;5073559;28;19908;-67
2021/11/19 04:59:32;;;;;;;;;;;26.30;95.10;;;;;;5073442;28;20296;-68
2021/11/19 05:02:01;;;;;;;;;;;26.20;95.10;;;;;;5073306;28;20381;-69
2021/11/19 05:04:28;;;;;;;;;;;26.20;95.20;;;;;;5073594;28;20330;-70
2021/11/19 05:06:55;;;;;;;;;;;26.20;94.90;;;;;;5073365;28;19908;-70
2021/11/19 05:09:22;;;;;;;;;;;26.30;95.00;;;;;;5073700;28;19916;-71
2021/11/19 05:11:49;;;;;;;;;;;26.30;95.30;;;;;;5073178;28;20029;-68
2021/11/19 05:14:16;;;;;;;;;;;26.30;94.40;;;;;;5073368;28;19920;-71
2021/11/19 05:16:42;;;;;;;;;;;26.30;95.00;;;;;;5073467;28;19908;-70
2021/11/19 05:19:09;;;;;;;;;;;26.30;94.90;;;;;;5073068;28;19956;-72
2021/11/19 05:21:36;;;;;;;;;;;26.30;94.40;;;;;;5073029;28;19908;-69
2021/11/19 05:24:05;;;;;;;;;;;26.30;94.20;;;;;;5073053;28;19909;-71
2021/11/19 05:26:32;;;;;;;;;;;26.20;94.10;;;;;;5073043;28;20003;-70
2021/11/19 05:29:00;;;;;;;;;;;26.20;94.50;;;;;;5073102;28;19915;-69
2021/11/19 05:31:27;;;;;;;;;;;26.20;94.30;;;;;;5073105;28;20363;-70
2021/11/19 05:33:54;;;;;;;;;;;26.20;94.30;;;;;;5072933;28;19975;-71
2021/11/19 05:36:21;;;;;;;;;;;26.30;94.40;;;;;;5072994;28;20029;-72
2021/11/19 05:38:47;;;;;;;;;;;26.30;94.80;;;;;;5072876;28;19961;-70
2021/11/19 05:41:15;;;;;;;;;;;26.30;95.90;;;;;;5072920;28;19908;-70
2021/11/19 05:43:43;;;;;;;;;;;26.20;95.90;;;;;;5072792;28;19962;-70
2021/11/19 05:46:12;;;;;;;;;;;26.20;96.10;;;;;;5072559;28;20000;-71
2021/11/19 05:48:39;;;;;;;;;;;26.10;96.30;;;;;;5072838;28;19908;-72
2021/11/19 05:51:06;;;;;;;;;;;26.10;96.60;;;;;;5071311;28;20023;-70
2021/11/19 05:53:33;;;;;;;;;;;26.10;96.60;;;;;;5070530;28;19916;-70
2021/11/19 05:56:00;;;;;;;;;;;26.00;96.40;;;;;;5070057;28;19916;-71
2021/11/19 05:58:27;;;;;;;;;;;25.90;96.30;;;;;;5069140;28;19912;-72
2021/11/19 06:00:55;;;;;;;;;;;26.00;96.30;;;;;;5070593;28;19924;-70
2021/11/19 06:03:23;;;;;;;;;;;26.00;96.40;;;;;;5070494;28;19912;-71
2021/11/19 06:05:50;;;;;;;;;;;25.90;96.30;;;;;;5070211;28;19912;-70
2021/11/19 06:08:17;;;;;;;;;;;25.90;96.60;;;;;;5070331;28;20326;-69
2021/11/19 06:10:55;;;;;;;;;;;25.90;96.90;;;;;;5070187;28;20307;-67
2021/11/19 06:13:25;;;;;;;;;;;26.10;96.30;;;;;;5070163;28;20377;-67
2021/11/19 06:15:54;;;;;;;;;;;26.10;96.30;;;;;;5069943;28;20315;-70
2021/11/19 06:18:24;;;;;;;;;;;26.00;96.40;;;;;;5070141;28;19913;-72
2021/11/19 06:20:52;;;;;;;;;;;25.90;96.30;;;;;;5070174;28;19919;-71
2021/11/19 06:23:21;;;;;;;;;;;26.00;96.20;;;;;;5070330;28;19908;-71
2021/11/19 06:25:48;;;;;;;;;;;26.10;96.30;;;;;;5069739;28;19920;-71
2021/11/19 06:28:17;;;;;;;;;;;26.10;98.00;;;;;;5070064;28;19960;-70
2021/11/19 06:30:44;;;;;;;;;;;25.70;98.70;;;;;;5069647;28;19913;-71
2021/11/19 06:33:10;;;;;;;;;;;25.00;99.60;;;;;;5069976;28;19920;-69
2021/11/19 06:35:37;;;;;;;;;;;24.10;99.90;;;;;;5070188;28;20373;-69
2021/11/19 06:38:04;;;;;;;;;;;23.50;99.90;;;;;;5069818;28;19912;-70
2021/11/19 06:40:32;;;;;;;;;;;23.30;99.90;;;;;;5069784;28;19917;-71
2021/11/19 06:43:00;;;;;;;;;;;23.20;99.90;;;;;;5085202;28;20078;-71
2021/11/19 06:45:27;;;;;;;;;;;22.80;99.90;;;;;;5069763;28;19992;-70
2021/11/19 06:47:54;;;;;;;;;;;22.60;99.90;;;;;;5069951;28;19912;-71
2021/11/19 06:50:23;;;;;;;;;;;22.40;99.90;;;;;;5085477;28;19927;-70
2021/11/19 06:52:50;;;;;;;;;;;22.30;99.90;;;;;;5069988;28;20267;-68
2021/11/19 06:55:17;;;;;;;;;;;22.40;99.90;;;;;;5069910;28;20499;-69
2021/11/19 06:57:44;;;;;;;;;;;22.30;99.90;;;;;;5069898;28;19908;-68
2021/11/19 07:00:17;;;;;;;;;;;22.10;99.90;;;;;;5069815;28;19931;-68
2021/11/19 07:02:43;;;;;;;;;;;21.90;99.90;;;;;;5070027;28;19908;-71
2021/11/19 07:05:10;;;;;;;;;;;21.60;99.90;;;;;;5070051;28;20271;-72
2021/11/19 07:07:37;;;;;;;;;;;21.50;99.90;;;;;;5073316;28;20039;-72
2021/11/19 07:10:05;;;;;;;;;;;21.40;99.90;;;;;;5072850;28;19934;-72
2021/11/19 07:12:32;;;;;;;;;;;21.20;99.90;;;;;;5073447;28;19966;-72
2021/11/19 07:14:58;;;;;;;;;;;20.80;99.90;;;;;;5073703;28;19919;-72
2021/11/19 07:17:28;;;;;;;;;;;20.50;99.90;;;;;;5072120;28;20011;-74
2021/11/19 07:19:55;;;;;;;;;;;20.50;99.90;;;;;;5073235;28;19982;-68
2021/11/19 07:22:21;;;;;;;;;;;20.50;99.90;;;;;;5073149;28;19909;-72
2021/11/19 07:24:49;;;;;;;;;;;20.50;99.90;;;;;;5073539;28;19908;-68
2021/11/19 07:27:16;;;;;;;;;;;20.50;99.90;;;;;;5073495;28;19916;-69
2021/11/19 07:29:43;;;;;;;;;;;20.40;99.90;;;;;;5071798;28;19912;-66
2021/11/19 07:32:10;;;;;;;;;;;20.30;99.90;;;;;;5072510;28;20560;-70
2021/11/19 07:34:37;;;;;;;;;;;20.30;99.90;;;;;;5072599;28;19955;-68
2021/11/19 07:37:03;;;;;;;;;;;20.20;99.90;;;;;;5073232;28;19914;-73
2021/11/19 07:39:30;;;;;;;;;;;20.10;99.90;;;;;;5088544;28;20408;-71
2021/11/19 07:41:57;;;;;;;;;;;20.10;99.90;;;;;;5072506;28;19908;-69
2021/11/19 07:44:24;;;;;;;;;;;20.20;99.90;;;;;;5073001;28;19913;-68
2021/11/19 07:46:50;;;;;;;;;;;20.00;99.90;;;;;;5072966;28;19919;-67
2021/11/19 07:49:17;;;;;;;;;;;19.80;99.90;;;;;;5073011;28;19912;-72
2021/11/19 07:51:46;;;;;;;;;;;19.60;99.90;;;;;;5072964;28;19920;-68
2021/11/19 07:54:13;;;;;;;;;;;19.60;99.90;;;;;;5072381;28;20043;-69
2021/11/19 07:56:40;;;;;;;;;;;19.60;99.90;;;;;;5072675;28;19908;-68
2021/11/19 07:59:17;;;;;;;;;;;19.50;99.90;;;;;;5072574;28;19920;-71
2021/11/19 08:01:44;;;;;;;;;;;19.40;99.90;;;;;;5072713;28;20023;-72
2021/11/19 08:04:11;;;;;;;;;;;19.40;99.90;;;;;;5072509;28;20530;-70
2021/11/19 08:06:39;;;;;;;;;;;19.20;99.90;;;;;;5074215;28;19916;-69
2021/11/19 08:09:06;;;;;;;;;;;19.20;99.90;;;;;;5074478;28;20401;-72
2021/11/19 08:11:33;;;;;;;;;;;19.20;99.90;;;;;;5074570;28;19924;-72
2021/11/19 08:13:59;;;;;;;;;;;19.30;99.90;;;;;;5074378;28;19908;-73
2021/11/19 08:16:27;;;;;;;;;;;19.40;99.90;;;;;;5074581;28;20290;-68
2021/11/19 08:18:58;;;;;;;;;;;19.40;99.90;;;;;;5073592;28;19995;-69
2021/11/19 08:21:26;;;;;;;;;;;19.40;99.90;;;;;;5074393;28;19915;-67
2021/11/19 08:24:03;;;;;;;;;;;19.40;99.90;;;;;;5074160;28;19999;-68
2021/11/19 08:26:30;;;;;;;;;;;19.40;99.90;;;;;;5074111;28;20297;-72
2021/11/19 08:28:57;;;;;;;;;;;19.40;99.90;;;;;;5074361;28;19909;-71
2021/11/19 08:31:25;;;;;;;;;;;19.40;99.90;;;;;;5074306;28;19943;-72
2021/11/19 08:33:52;;;;;;;;;;;19.30;99.90;;;;;;5074095;28;19985;-68
2021/11/19 08:36:20;;;;;;;;;;;19.20;99.90;;;;;;5074090;28;19909;-72
2021/11/19 08:38:46;;;;;;;;;;;19.20;99.90;;;;;;5073980;28;19920;-69
2021/11/19 08:41:15;;;;;;;;;;;19.20;99.90;;;;;;5073961;28;19952;-74
2021/11/19 08:43:44;;;;;;;;;;;19.20;99.90;;;;;;5074060;28;20404;-73
2021/11/19 08:46:17;;;;;;;;;;;19.00;99.90;;;;;;5073873;28;19912;-73
2021/11/19 08:48:46;;;;;;;;;;;18.90;99.90;;;;;;5073981;28;19909;-73
2021/11/19 08:51:18;;;;;;;;;;;18.80;99.90;;;;;;5073668;28;19923;-73
2021/11/19 08:53:55;;;;;;;;;;;18.80;99.90;;;;;;5073562;28;19908;-72
2021/11/19 08:56:22;;;;;;;;;;;18.80;99.90;;;;;;5073767;28;20354;-72
2021/11/19 08:58:49;;;;;;;;;;;18.90;99.90;;;;;;5073602;28;20294;-74
2021/11/19 09:01:16;;;;;;;;;;;18.90;99.90;;;;;;5073344;28;19921;-71
2021/11/19 09:03:44;;;;;;;;;;;18.70;99.90;;;;;;5073667;28;19931;-69
2021/11/19 09:06:12;;;;;;;;;;;18.70;99.90;;;;;;5073191;28;19919;-74
2021/11/19 09:08:39;;;;;;;;;;;18.70;99.90;;;;;;5073332;28;19916;-72
2021/11/19 09:11:07;;;;;;;;;;;18.60;99.90;;;;;;5073701;28;19920;-70
2021/11/19 09:13:34;;;;;;;;;;;18.60;99.90;;;;;;5073658;28;20323;-73
2021/11/19 09:16:02;;;;;;;;;;;18.60;99.90;;;;;;5073290;28;19913;-73
2021/11/19 09:18:36;;;;;;;;;;;18.60;99.90;;;;;;5073530;28;20005;-74
2021/11/19 09:21:32;;;;;;;;;;;18.70;99.90;;;;;;5072142;28;19920;-73
2021/11/19 09:24:11;;;;;;;;;;;18.70;99.90;;;;;;5063920;28;19955;-74
2021/11/19 09:26:48;;;;;;;;;;;18.80;99.90;;;;;;5073351;28;19915;-69
2021/11/19 09:29:20;;;;;;;;;;;18.90;99.90;;;;;;5072298;28;20003;-70
2021/11/19 09:31:48;;;;;;;;;;;18.90;99.90;;;;;;5070690;28;20426;-70
2021/11/19 09:34:16;;;;;;;;;;;18.90;99.90;;;;;;5070956;28;20328;-71
2021/11/19 09:36:43;;;;;;;;;;;19.00;99.90;;;;;;5071122;28;20362;-70
2021/11/19 09:39:12;;;;;;;;;;;18.90;99.90;;;;;;5070873;28;19916;-74
2021/11/19 09:41:45;;;;;;;;;;;18.90;99.90;;;;;;5070984;28;19924;-73
2021/11/19 09:44:14;;;;;;;;;;;18.90;99.90;;;;;;5070966;28;19954;-74
2021/11/19 09:46:58;;;;;;;;;;;18.80;99.90;;;;;;5071272;28;20248;-72
2021/11/19 09:49:42;;;;;;;;;;;18.80;99.90;;;;;;5070813;28;19954;-72
2021/11/19 09:52:27;;;;;;;;;;;18.80;99.90;;;;;;5070591;28;19924;-71
2021/11/19 09:55:23;;;;;;;;;;;18.80;99.90;;;;;;5070609;28;19909;-73
2021/11/19 09:57:49;;;;;;;;;;;18.90;99.90;;;;;;5070477;28;19908;-70
2021/11/19 10:00:16;;;;;;;;;;;18.80;99.90;;;;;;5069233;28;19926;-70
2021/11/19 10:02:55;;;;;;;;;;;18.90;99.90;;;;;;5070970;28;20521;-73
2021/11/19 10:05:22;;;;;;;;;;;18.80;99.90;;;;;;5070491;28;19909;-72
2021/11/19 10:07:48;;;;;;;;;;;18.80;99.90;;;;;;5070547;28;19915;-73
2021/11/19 10:10:18;;;;;;;;;;;18.70;99.90;;;;;;5070213;28;19913;-73
2021/11/19 10:12:45;;;;;;;;;;;18.70;99.90;;;;;;5070763;28;19923;-72
2021/11/19 10:15:21;;;;;;;;;;;18.60;99.90;;;;;;5070596;28;19913;-72
2021/11/19 10:17:51;;;;;;;;;;;18.70;99.90;;;;;;5069506;28;20366;-72
2021/11/19 10:20:27;;;;;;;;;;;18.60;99.90;;;;;;5070757;28;20358;-70
2021/11/19 10:22:58;;;;;;;;;;;18.60;99.90;;;;;;5070097;28;19909;-67
2021/11/19 10:25:38;;;;;;;;;;;18.60;99.90;;;;;;5070450;28;19912;-73
2021/11/19 10:28:08;;;;;;;;;;;18.60;99.90;;;;;;5070216;28;20015;-71
2021/11/19 10:30:40;;;;;;;;;;;18.70;99.90;;;;;;5070275;28;19958;-70
2021/11/19 10:33:16;;;;;;;;;;;18.70;99.90;;;;;;5070193;28;20363;-68
2021/11/19 10:35:53;;;;;;;;;;;18.70;99.90;;;;;;5070049;28;19912;-69
2021/11/19 10:38:39;;;;;;;;;;;18.70;99.90;;;;;;5070530;28;19909;-71
2021/11/19 10:41:24;;;;;;;;;;;18.70;99.90;;;;;;5071780;28;20322;-68
2021/11/19 10:43:56;;;;;;;;;;;18.70;99.90;;;;;;5074377;28;19919;-70
2021/11/19 10:46:28;;;;;;;;;;;18.70;99.90;;;;;;5074541;28;19908;-72
2021/11/19 10:49:07;;;;;;;;;;;18.70;99.90;;;;;;5073984;28;19924;-72
2021/11/19 10:51:54;;;;;;;;;;;18.80;99.90;;;;;;5074180;28;19932;-73
2021/11/19 10:54:23;;;;;;;;;;;18.80;99.90;;;;;;5074259;28;19912;-72
2021/11/19 10:56:59;;;;;;;;;;;18.80;99.90;;;;;;5074336;28;19908;-68
2021/11/19 10:59:29;;;;;;;;;;;18.90;99.90;;;;;;5073781;28;19927;-72
2021/11/19 11:02:13;;;;;;;;;;;18.90;99.90;;;;;;5073584;28;19960;-68
2021/11/19 11:07:23;;;;;;;;;;;18.90;99.90;;;;;;5073954;28;19916;-67
2021/11/19 11:09:54;;;;;;;;;;;18.90;99.90;;;;;;5073514;28;19959;-70
2021/11/19 11:12:22;;;;;;;;;;;18.90;99.90;;;;;;5073978;28;19920;-73
2021/11/19 11:15:00;;;;;;;;;;;18.90;99.90;;;;;;5073579;28;19991;-67
2021/11/19 11:17:29;;;;;;;;;;;18.90;99.90;;;;;;5074106;28;19914;-72
2021/11/19 11:20:01;;;;;;;;;;;18.90;99.90;;;;;;5073627;28;19913;-72
2021/11/19 11:22:29;;;;;;;;;;;18.90;99.90;;;;;;5074037;28;20377;-72
2021/11/19 11:25:03;;;;;;;;;;;18.90;99.90;;;;;;5073711;28;20424;-73
2021/11/19 11:27:32;;;;;;;;;;;18.90;99.90;;;;;;5073703;28;20277;-69
2021/11/19 11:30:10;;;;;;;;;;;18.90;99.90;;;;;;5073408;28;20056;-73
2021/11/19 11:32:50;;;;;;;;;;;18.90;99.90;;;;;;5073502;28;19916;-72
2021/11/19 11:35:29;;;;;;;;;;;19.00;99.90;;;;;;5073485;28;19912;-73
2021/11/19 11:38:08;;;;;;;;;;;19.00;99.90;;;;;;5073255;28;19908;-73
2021/11/19 11:40:56;;;;;;;;;;;19.00;99.90;;;;;;5071637;28;19948;-71
2021/11/19 11:43:32;;;;;;;;;;;19.00;99.90;;;;;;5066266;28;19959;-69
2021/11/19 11:46:17;;;;;;;;;;;19.00;99.90;;;;;;5073344;28;19959;-72
2021/11/19 11:48:56;;;;;;;;;;;18.90;99.90;;;;;;5073077;28;20344;-70
2021/11/19 11:51:25;;;;;;;;;;;18.90;99.90;;;;;;5072824;28;20393;-74
2021/11/19 11:53:52;;;;;;;;;;;18.90;99.90;;;;;;5071190;28;19995;-73
2021/11/19 11:56:39;;;;;;;;;;;19.00;99.90;;;;;;5073321;28;20319;-72
2021/11/19 11:59:06;;;;;;;;;;;18.90;99.90;;;;;;5072935;28;19917;-74
2021/11/19 12:01:37;;;;;;;;;;;18.90;99.90;;;;;;5073186;28;19978;-69
2021/11/19 12:04:06;;;;;;;;;;;18.80;99.90;;;;;;5073032;28;20363;-74
2021/11/19 12:06:40;;;;;;;;;;;18.80;99.90;;;;;;5072721;28;20345;-72
2021/11/19 12:09:12;;;;;;;;;;;18.80;99.90;;;;;;5072825;28;19909;-74
2021/11/19 12:11:57;;;;;;;;;;;18.80;99.90;;;;;;5072474;28;20286;-74
2021/11/19 12:14:39;;;;;;;;;;;18.80;99.90;;;;;;5072736;28;19995;-74
2021/11/19 12:17:22;;;;;;;;;;;18.70;99.90;;;;;;5072933;28;20435;-70
2021/11/19 12:19:52;;;;;;;;;;;18.80;99.90;;;;;;5072090;28;20419;-73
2021/11/19 12:22:21;;;;;;;;;;;18.80;99.90;;;;;;5072326;28;19965;-74
2021/11/19 12:24:53;;;;;;;;;;;18.80;99.90;;;;;;5072636;28;19912;-73
2021/11/19 12:27:33;;;;;;;;;;;18.80;99.90;;;;;;5072406;28;20385;-73
2021/11/19 12:30:16;;;;;;;;;;;18.80;99.90;;;;;;5072251;28;19908;-73
2021/11/19 12:32:47;;;;;;;;;;;18.80;99.90;;;;;;5071828;28;20011;-74
2021/11/19 12:35:17;;;;;;;;;;;18.80;99.90;;;;;;5072289;28;19963;-73
2021/11/19 12:38:02;;;;;;;;;;;18.80;99.90;;;;;;5072096;28;20381;-72
2021/11/19 12:40:39;;;;;;;;;;;18.80;99.90;;;;;;5072245;28;19909;-74
2021/11/19 12:43:32;;;;;;;;;;;18.70;99.90;;;;;;5072197;28;20087;-72
2021/11/19 12:46:17;;;;;;;;;;;18.80;99.90;;;;;;5055289;28;19916;-74
2021/11/19 12:48:59;;;;;;;;;;;18.80;99.90;;;;;;5072309;28;19917;-74
2021/11/19 12:51:34;;;;;;;;;;;18.70;99.90;;;;;;5071784;28;19916;-73
2021/11/19 12:54:03;;;;;;;;;;;18.70;99.90;;;;;;5071615;28;19989;-74
2021/11/19 12:56:48;;;;;;;;;;;18.70;99.90;;;;;;5071867;28;19909;-74
2021/11/19 12:59:16;;;;;;;;;;;18.60;99.90;;;;;;5071540;28;19987;-74
2021/11/19 13:01:46;;;;;;;;;;;18.60;99.90;;;;;;5071913;28;19920;-74
2021/11/19 13:04:32;;;;;;;;;;;18.60;99.90;;;;;;5071389;28;19918;-73
2021/11/19 13:06:59;;;;;;;;;;;18.60;99.90;;;;;;5071033;28;19915;-72
2021/11/19 13:09:44;;;;;;;;;;;18.50;99.90;;;;;;5071563;28;20007;-73
2021/11/19 13:12:29;;;;;;;;;;;18.50;99.90;;;;;;5070657;28;20359;-72
2021/11/19 13:15:13;;;;;;;;;;;18.50;99.90;;;;;;5071457;28;19913;-72
2021/11/19 13:17:44;;;;;;;;;;;18.40;99.90;;;;;;5071372;28;20065;-73
2021/11/19 13:20:28;;;;;;;;;;;18.50;99.90;;;;;;5070977;28;20015;-73
2021/11/19 13:22:55;;;;;;;;;;;18.50;99.90;;;;;;5071120;28;19913;-74
2021/11/19 13:25:24;;;;;;;;;;;18.30;99.90;;;;;;5070953;28;19908;-72
2021/11/19 13:27:52;;;;;;;;;;;18.40;99.90;;;;;;5070979;28;19912;-70
2021/11/19 13:30:34;;;;;;;;;;;18.40;99.90;;;;;;5071141;28;20441;-73
2021/11/19 13:33:06;;;;;;;;;;;18.40;99.90;;;;;;5071125;28;19917;-74
2021/11/19 13:35:32;;;;;;;;;;;18.40;99.90;;;;;;5070950;28;19910;-73
2021/11/19 13:37:59;;;;;;;;;;;18.40;99.90;;;;;;5070436;28;19916;-74
2021/11/19 13:40:32;;;;;;;;;;;18.40;99.90;;;;;;5071001;28;19952;-72
2021/11/19 13:43:01;;;;;;;;;;;18.30;99.90;;;;;;5070959;28;19962;-74
2021/11/19 13:45:43;;;;;;;;;;;18.30;99.90;;;;;;5069400;28;20359;-74
2021/11/19 13:48:21;;;;;;;;;;;18.40;99.90;;;;;;5070594;28;19916;-73
2021/11/19 13:50:57;;;;;;;;;;;18.40;99.90;;;;;;5070433;28;19913;-74
2021/11/19 13:53:39;;;;;;;;;;;18.40;99.90;;;;;;5070838;28;19908;-73
2021/11/19 13:56:12;;;;;;;;;;;18.30;99.90;;;;;;5070512;28;19923;-74
2021/11/19 13:58:39;;;;;;;;;;;18.20;99.90;;;;;;5070731;28;19952;-73
2021/11/19 14:01:25;;;;;;;;;;;18.30;99.90;;;;;;5069146;28;20337;-75
2021/11/19 14:03:53;;;;;;;;;;;18.30;99.90;;;;;;5070225;28;19909;-75
2021/11/19 14:06:20;;;;;;;;;;;18.20;99.90;;;;;;5070677;28;19961;-71
2021/11/19 14:09:05;;;;;;;;;;;18.30;99.90;;;;;;5070684;28;19961;-70
2021/11/19 14:11:32;;;;;;;;;;;18.30;99.90;;;;;;5070610;28;19927;-70
2021/11/19 14:13:59;;;;;;;;;;;18.40;99.90;;;;;;5070525;28;19909;-69
2021/11/19 14:16:30;;;;;;;;;;;18.40;99.90;;;;;;5068714;28;19912;-69
2021/11/19 14:19:09;;;;;;;;;;;18.50;99.90;;;;;;5070452;28;19942;-70
2021/11/19 14:24:25;;;;;;;;;;;18.50;99.90;;;;;;5070694;28;19908;-72
2021/11/19 14:27:07;;;;;;;;;;;18.40;99.90;;;;;;5070565;28;19908;-73
2021/11/19 14:29:38;;;;;;;;;;;18.50;99.90;;;;;;5070452;28;19916;-71
2021/11/19 14:32:06;;;;;;;;;;;18.40;99.90;;;;;;5070015;28;20306;-71
2021/11/19 14:34:44;;;;;;;;;;;18.40;99.90;;;;;;5070304;28;19920;-68
2021/11/19 14:37:21;;;;;;;;;;;18.40;99.90;;;;;;5070235;28;20023;-70
2021/11/19 14:39:49;;;;;;;;;;;18.40;99.90;;;;;;5070293;28;20078;-71
2021/11/19 14:42:20;;;;;;;;;;;18.40;99.90;;;;;;5070316;28;19920;-69